CSN5581 ZYCC-ZBAD
Flight info
| Callsign | CSN5581 |
|---|---|
| Flight time | 1h 28m |
| Altitude | 36100 |
| Route | BUT91D BUTET G341 TGO G212 BUMDU BUMDU5L |
| Aircraft | A320/M-SDE3FGHIRWY/LB1 |
Departure
| Time | 2026-04-29 14:32 |
|---|---|
| Airport | Changchun Longjia International Airport (ZYCC) |
Arrival
| Time | 2026-04-29 16:00 |
|---|---|
| Airport | Beijing Daxing International Airport (ZBAD) |
| Time | Latitude | Longitude | Altitude | Speed | Heading |
|---|---|---|---|---|---|
| 2026-04-29 13:54 | 43.99514 | 125.69888 | 714 ft | 0 kts | 229° |
| 2026-04-29 14:14 | 43.99519 | 125.69896 | 714 ft | 2 kts | 229° |
| 2026-04-29 14:14 | 43.99529 | 125.69912 | 714 ft | 2 kts | 230° |
| 2026-04-29 14:15 | 43.99539 | 125.69928 | 714 ft | 2 kts | 229° |
| 2026-04-29 14:15 | 43.99549 | 125.69944 | 714 ft | 2 kts | 229° |
| 2026-04-29 14:15 | 43.99559 | 125.69960 | 714 ft | 2 kts | 230° |
| 2026-04-29 14:15 | 43.99567 | 125.69978 | 714 ft | 2 kts | 261° |
| 2026-04-29 14:16 | 43.99566 | 125.69999 | 714 ft | 2 kts | 290° |
| 2026-04-29 14:16 | 43.99559 | 125.70015 | 714 ft | 0 kts | 316° |
| 2026-04-29 14:16 | 43.99554 | 125.70020 | 714 ft | 1 kts | 320° |
| 2026-04-29 14:16 | 43.99553 | 125.70022 | 714 ft | 0 kts | 320° |
| 2026-04-29 14:18 | 43.99553 | 125.70021 | 714 ft | 0 kts | 320° |
| 2026-04-29 14:20 | 43.99569 | 125.70003 | 714 ft | 6 kts | 319° |
| 2026-04-29 14:20 | 43.99610 | 125.69958 | 714 ft | 7 kts | 342° |
| 2026-04-29 14:20 | 43.99655 | 125.69977 | 714 ft | 4 kts | 25° |
| 2026-04-29 14:21 | 43.99657 | 125.69978 | 714 ft | 0 kts | 25° |
| 2026-04-29 14:24 | 43.99673 | 125.69988 | 714 ft | 9 kts | 25° |
| 2026-04-29 14:24 | 43.99740 | 125.70064 | 714 ft | 11 kts | 52° |
| 2026-04-29 14:25 | 43.99800 | 125.70077 | 714 ft | 11 kts | 322° |
| 2026-04-29 14:25 | 43.99878 | 125.69984 | 714 ft | 17 kts | 320° |
| 2026-04-29 14:25 | 43.99976 | 125.69868 | 714 ft | 17 kts | 319° |
| 2026-04-29 14:25 | 44.00060 | 125.69765 | 714 ft | 12 kts | 318° |
| 2026-04-29 14:26 | 44.00086 | 125.69733 | 714 ft | 1 kts | 319° |
| 2026-04-29 14:26 | 44.00122 | 125.69706 | 714 ft | 8 kts | 359° |
| 2026-04-29 14:26 | 44.00178 | 125.69763 | 714 ft | 13 kts | 51° |
| 2026-04-29 14:26 | 44.00233 | 125.69852 | 714 ft | 12 kts | 49° |
| 2026-04-29 14:27 | 44.00303 | 125.69964 | 714 ft | 20 kts | 49° |
| 2026-04-29 14:27 | 44.00382 | 125.70089 | 714 ft | 8 kts | 49° |
| 2026-04-29 14:27 | 44.00404 | 125.70126 | 714 ft | 6 kts | 51° |
| 2026-04-29 14:28 | 44.00468 | 125.70133 | 714 ft | 7 kts | 319° |
| 2026-04-29 14:28 | 44.00488 | 125.70110 | 714 ft | 0 kts | 320° |
| 2026-04-29 14:29 | 44.00492 | 125.70106 | 714 ft | 3 kts | 320° |
| 2026-04-29 14:30 | 44.00533 | 125.70057 | 714 ft | 9 kts | 319° |
| 2026-04-29 14:30 | 44.00548 | 125.69996 | 714 ft | 6 kts | 240° |
| 2026-04-29 14:30 | 44.00540 | 125.69984 | 714 ft | 0 kts | 226° |
| 2026-04-29 14:31 | 44.00496 | 125.69915 | 714 ft | 33 kts | 230° |
| 2026-04-29 14:31 | 44.00165 | 125.69379 | 714 ft | 111 kts | 231° |
| 2026-04-29 14:32 | 43.99504 | 125.68327 | 762 ft | 169 kts | 228° |
| 2026-04-29 14:32 | 43.98686 | 125.67096 | 1428 ft | 178 kts | 229° |
| 2026-04-29 14:32 | 43.97843 | 125.65847 | 2229 ft | 183 kts | 229° |
| 2026-04-29 14:32 | 43.96959 | 125.64561 | 2961 ft | 191 kts | 228° |
| 2026-04-29 14:33 | 43.95975 | 125.63184 | 3433 ft | 213 kts | 226° |
| 2026-04-29 14:33 | 43.94826 | 125.61683 | 3968 ft | 235 kts | 224° |
| 2026-04-29 14:33 | 43.93570 | 125.60185 | 4737 ft | 245 kts | 221° |
| 2026-04-29 14:33 | 43.92163 | 125.58682 | 5325 ft | 263 kts | 218° |
| 2026-04-29 14:34 | 43.90633 | 125.57220 | 5911 ft | 278 kts | 217° |
| 2026-04-29 14:34 | 43.89062 | 125.55626 | 6708 ft | 283 kts | 220° |
| 2026-04-29 14:34 | 43.87509 | 125.53919 | 7528 ft | 287 kts | 221° |
| 2026-04-29 14:34 | 43.85971 | 125.52138 | 8318 ft | 292 kts | 223° |
| 2026-04-29 14:35 | 43.84422 | 125.50287 | 9100 ft | 297 kts | 223° |
| 2026-04-29 14:35 | 43.83696 | 125.49411 | 9462 ft | 299 kts | 223° |
| 2026-04-29 14:35 | 43.83344 | 125.48986 | 9636 ft | 300 kts | 223° |
| 2026-04-29 14:35 | 43.81755 | 125.47083 | 10350 ft | 307 kts | 223° |
| 2026-04-29 14:36 | 43.80077 | 125.45115 | 10741 ft | 325 kts | 221° |
| 2026-04-29 14:36 | 43.78280 | 125.43095 | 11168 ft | 340 kts | 220° |
| 2026-04-29 14:36 | 43.76389 | 125.41097 | 11828 ft | 346 kts | 218° |
| 2026-04-29 14:36 | 43.74434 | 125.39188 | 12545 ft | 349 kts | 216° |
| 2026-04-29 14:37 | 43.72381 | 125.37373 | 13226 ft | 353 kts | 212° |
| 2026-04-29 14:37 | 43.70216 | 125.35681 | 13907 ft | 356 kts | 209° |
| 2026-04-29 14:37 | 43.67995 | 125.34191 | 14606 ft | 358 kts | 204° |
| 2026-04-29 14:37 | 43.65676 | 125.32904 | 15254 ft | 361 kts | 200° |
| 2026-04-29 14:38 | 43.63358 | 125.31575 | 15794 ft | 365 kts | 212° |
| 2026-04-29 14:38 | 43.61466 | 125.29317 | 16363 ft | 365 kts | 233° |
| 2026-04-29 14:38 | 43.60266 | 125.26263 | 16898 ft | 366 kts | 253° |
| 2026-04-29 14:38 | 43.59871 | 125.22798 | 17350 ft | 369 kts | 273° |
| 2026-04-29 14:39 | 43.60297 | 125.19312 | 17822 ft | 371 kts | 290° |
| 2026-04-29 14:39 | 43.61467 | 125.16173 | 18539 ft | 368 kts | 306° |
| 2026-04-29 14:39 | 43.63233 | 125.13622 | 19102 ft | 369 kts | 322° |
| 2026-04-29 14:39 | 43.65403 | 125.11739 | 19568 ft | 372 kts | 328° |
| 2026-04-29 14:40 | 43.67423 | 125.09540 | 20092 ft | 374 kts | 313° |
| 2026-04-29 14:40 | 43.68946 | 125.06604 | 20599 ft | 377 kts | 296° |
| 2026-04-29 14:40 | 43.69870 | 125.03204 | 21092 ft | 380 kts | 290° |
| 2026-04-29 14:40 | 43.70718 | 124.99730 | 21541 ft | 383 kts | 289° |
| 2026-04-29 14:41 | 43.71543 | 124.96251 | 21992 ft | 386 kts | 288° |
| 2026-04-29 14:41 | 43.72338 | 124.92696 | 22439 ft | 389 kts | 288° |
| 2026-04-29 14:41 | 43.73077 | 124.89082 | 22887 ft | 391 kts | 286° |
| 2026-04-29 14:41 | 43.73730 | 124.85446 | 23320 ft | 394 kts | 284° |
| 2026-04-29 14:42 | 43.74289 | 124.81716 | 23733 ft | 397 kts | 282° |
| 2026-04-29 14:42 | 43.74723 | 124.77947 | 24168 ft | 400 kts | 278° |
| 2026-04-29 14:42 | 43.75010 | 124.74126 | 24593 ft | 403 kts | 276° |
| 2026-04-29 14:42 | 43.75130 | 124.70231 | 25033 ft | 405 kts | 272° |
| 2026-04-29 14:43 | 43.75058 | 124.66337 | 25432 ft | 408 kts | 268° |
| 2026-04-29 14:43 | 43.74747 | 124.62432 | 25828 ft | 411 kts | 262° |
| 2026-04-29 14:43 | 43.74108 | 124.58524 | 26062 ft | 418 kts | 256° |
| 2026-04-29 14:43 | 43.73228 | 124.54703 | 26490 ft | 419 kts | 252° |
| 2026-04-29 14:44 | 43.72177 | 124.50958 | 26909 ft | 421 kts | 249° |
| 2026-04-29 14:44 | 43.70921 | 124.47267 | 27296 ft | 423 kts | 245° |
| 2026-04-29 14:44 | 43.69540 | 124.43678 | 27653 ft | 425 kts | 245° |
| 2026-04-29 14:44 | 43.68297 | 124.40014 | 27991 ft | 426 kts | 250° |
| 2026-04-29 14:45 | 43.67254 | 124.36157 | 28338 ft | 427 kts | 255° |
| 2026-04-29 14:45 | 43.66504 | 124.32214 | 28647 ft | 427 kts | 261° |
| 2026-04-29 14:45 | 43.66108 | 124.28151 | 28972 ft | 427 kts | 268° |
| 2026-04-29 14:45 | 43.66032 | 124.24040 | 29266 ft | 428 kts | 274° |
| 2026-04-29 14:46 | 43.66316 | 124.19945 | 29586 ft | 428 kts | 278° |
| 2026-04-29 14:46 | 43.66675 | 124.15845 | 29890 ft | 430 kts | 279° |
| 2026-04-29 14:46 | 43.67050 | 124.11762 | 30195 ft | 431 kts | 279° |
| 2026-04-29 14:46 | 43.67405 | 124.07671 | 30456 ft | 434 kts | 277° |
| 2026-04-29 14:47 | 43.67548 | 124.03495 | 30745 ft | 437 kts | 269° |
| 2026-04-29 14:47 | 43.67155 | 123.99325 | 30982 ft | 441 kts | 262° |
| 2026-04-29 14:47 | 43.66638 | 123.95137 | 31225 ft | 443 kts | 262° |
| 2026-04-29 14:47 | 43.66093 | 123.90951 | 31472 ft | 444 kts | 261° |
| 2026-04-29 14:48 | 43.65494 | 123.86732 | 31703 ft | 446 kts | 260° |
| 2026-04-29 14:48 | 43.64833 | 123.82574 | 31925 ft | 448 kts | 259° |
| 2026-04-29 14:48 | 43.64073 | 123.78381 | 32160 ft | 450 kts | 257° |
| 2026-04-29 14:48 | 43.63213 | 123.74263 | 32404 ft | 450 kts | 255° |
| 2026-04-29 14:49 | 43.62272 | 123.70164 | 32716 ft | 449 kts | 256° |
| 2026-04-29 14:49 | 43.61541 | 123.66013 | 33021 ft | 447 kts | 260° |
| 2026-04-29 14:49 | 43.60915 | 123.61807 | 33329 ft | 445 kts | 261° |
| 2026-04-29 14:49 | 43.60312 | 123.57520 | 33599 ft | 445 kts | 261° |
| 2026-04-29 14:50 | 43.59743 | 123.53382 | 33847 ft | 445 kts | 261° |
| 2026-04-29 14:50 | 43.59156 | 123.49164 | 34126 ft | 444 kts | 261° |
| 2026-04-29 14:50 | 43.58556 | 123.45053 | 34393 ft | 443 kts | 260° |
| 2026-04-29 14:50 | 43.57901 | 123.40910 | 34634 ft | 443 kts | 259° |
| 2026-04-29 14:51 | 43.57174 | 123.36762 | 34868 ft | 443 kts | 257° |
| 2026-04-29 14:51 | 43.56362 | 123.32664 | 35083 ft | 442 kts | 255° |
| 2026-04-29 14:51 | 43.55453 | 123.28651 | 35268 ft | 443 kts | 252° |
| 2026-04-29 14:51 | 43.54412 | 123.24631 | 35486 ft | 443 kts | 251° |
| 2026-04-29 14:52 | 43.53569 | 123.20618 | 35719 ft | 440 kts | 259° |
| 2026-04-29 14:52 | 43.53120 | 123.16486 | 35918 ft | 438 kts | 266° |
| 2026-04-29 14:52 | 43.53043 | 123.12270 | 36146 ft | 436 kts | 273° |
| 2026-04-29 14:53 | 43.54184 | 123.04180 | 36231 ft | 436 kts | 296° |
| 2026-04-29 14:53 | 43.55800 | 123.00667 | 36192 ft | 435 kts | 307° |
| 2026-04-29 14:53 | 43.57455 | 122.97185 | 36219 ft | 433 kts | 296° |
| 2026-04-29 14:53 | 43.58475 | 122.93259 | 36227 ft | 435 kts | 282° |
| 2026-04-29 14:54 | 43.58897 | 122.89146 | 36218 ft | 435 kts | 277° |
| 2026-04-29 14:54 | 43.59088 | 122.80827 | 36225 ft | 436 kts | 268° |
| 2026-04-29 14:55 | 43.58833 | 122.72497 | 36217 ft | 436 kts | 268° |
| 2026-04-29 14:55 | 43.58464 | 122.64179 | 36220 ft | 438 kts | 266° |
| 2026-04-29 14:56 | 43.57805 | 122.55846 | 36220 ft | 439 kts | 263° |
| 2026-04-29 14:56 | 43.56688 | 122.47579 | 36224 ft | 440 kts | 257° |
| 2026-04-29 14:57 | 43.55215 | 122.39380 | 36225 ft | 440 kts | 257° |
| 2026-04-29 14:57 | 43.53783 | 122.31189 | 36225 ft | 440 kts | 257° |
| 2026-04-29 14:58 | 43.52241 | 122.23024 | 36229 ft | 441 kts | 255° |
| 2026-04-29 14:58 | 43.50431 | 122.14961 | 36223 ft | 442 kts | 251° |
| 2026-04-29 14:59 | 43.47596 | 122.07409 | 36218 ft | 444 kts | 237° |
| 2026-04-29 14:59 | 43.44079 | 122.00423 | 36232 ft | 444 kts | 234° |
| 2026-04-29 15:00 | 43.40311 | 121.93737 | 36229 ft | 444 kts | 231° |
| 2026-04-29 15:00 | 43.36165 | 121.87472 | 36233 ft | 444 kts | 225° |
| 2026-04-29 15:01 | 43.32101 | 121.81097 | 36224 ft | 444 kts | 239° |
| 2026-04-29 15:01 | 43.29160 | 121.73642 | 36225 ft | 444 kts | 244° |
| 2026-04-29 15:02 | 43.26469 | 121.66050 | 36226 ft | 444 kts | 245° |
| 2026-04-29 15:02 | 43.23872 | 121.58366 | 36231 ft | 443 kts | 245° |
| 2026-04-29 15:03 | 43.21250 | 121.50784 | 36223 ft | 443 kts | 244° |
| 2026-04-29 15:03 | 43.18406 | 121.43264 | 36230 ft | 444 kts | 242° |
| 2026-04-29 15:04 | 43.15244 | 121.36050 | 36236 ft | 443 kts | 237° |
| 2026-04-29 15:04 | 43.11612 | 121.29234 | 36239 ft | 435 kts | 230° |
| 2026-04-29 15:04 | 43.09675 | 121.26183 | 36237 ft | 421 kts | 227° |
| 2026-04-29 15:05 | 43.07634 | 121.23385 | 36241 ft | 407 kts | 222° |
| 2026-04-29 15:05 | 43.05524 | 121.20914 | 36238 ft | 393 kts | 218° |
| 2026-04-29 15:05 | 43.03341 | 121.18784 | 36247 ft | 382 kts | 212° |
| 2026-04-29 15:06 | 42.98705 | 121.15588 | 36252 ft | 368 kts | 199° |
| 2026-04-29 15:06 | 42.93928 | 121.12940 | 36124 ft | 380 kts | 215° |
| 2026-04-29 15:06 | 42.91971 | 121.10461 | 36088 ft | 388 kts | 231° |
| 2026-04-29 15:07 | 42.90363 | 121.07475 | 35909 ft | 402 kts | 235° |
| 2026-04-29 15:07 | 42.88672 | 121.04246 | 35277 ft | 429 kts | 234° |
| 2026-04-29 15:07 | 42.86906 | 121.00890 | 35139 ft | 439 kts | 234° |
| 2026-04-29 15:08 | 42.83254 | 120.94140 | 35285 ft | 447 kts | 232° |
| 2026-04-29 15:08 | 42.79362 | 120.87516 | 35518 ft | 451 kts | 230° |
| 2026-04-29 15:08 | 42.77314 | 120.84328 | 35694 ft | 450 kts | 229° |
| 2026-04-29 15:09 | 42.75236 | 120.81113 | 35880 ft | 450 kts | 229° |
| 2026-04-29 15:09 | 42.73183 | 120.77929 | 36084 ft | 449 kts | 229° |
| 2026-04-29 15:09 | 42.71220 | 120.74593 | 36201 ft | 449 kts | 235° |
| 2026-04-29 15:10 | 42.67635 | 120.67666 | 36215 ft | 446 kts | 235° |
| 2026-04-29 15:10 | 42.64020 | 120.60858 | 36215 ft | 448 kts | 233° |
| 2026-04-29 15:11 | 42.60267 | 120.54086 | 36211 ft | 449 kts | 233° |
| 2026-04-29 15:11 | 42.56525 | 120.47289 | 36203 ft | 450 kts | 233° |
| 2026-04-29 15:12 | 42.52757 | 120.40550 | 36212 ft | 452 kts | 234° |
| 2026-04-29 15:12 | 42.49091 | 120.33604 | 36214 ft | 452 kts | 234° |
| 2026-04-29 15:13 | 42.45497 | 120.26678 | 36212 ft | 453 kts | 234° |
| 2026-04-29 15:13 | 42.41792 | 120.19808 | 36218 ft | 453 kts | 232° |
| 2026-04-29 15:14 | 42.37844 | 120.13132 | 36212 ft | 454 kts | 229° |
| 2026-04-29 15:14 | 42.33704 | 120.06687 | 36220 ft | 453 kts | 230° |
| 2026-04-29 15:15 | 42.29675 | 120.00151 | 36227 ft | 453 kts | 230° |
| 2026-04-29 15:15 | 42.25632 | 119.93602 | 36207 ft | 453 kts | 229° |
| 2026-04-29 15:16 | 42.21497 | 119.87257 | 36215 ft | 453 kts | 227° |
| 2026-04-29 15:16 | 42.17170 | 119.81065 | 36193 ft | 453 kts | 226° |
| 2026-04-29 15:17 | 42.12839 | 119.74857 | 36195 ft | 453 kts | 226° |
| 2026-04-29 15:17 | 42.09064 | 119.68157 | 36146 ft | 454 kts | 241° |
| 2026-04-29 15:18 | 42.06643 | 119.60299 | 36196 ft | 455 kts | 249° |
| 2026-04-29 15:18 | 42.04025 | 119.52565 | 36214 ft | 455 kts | 243° |
| 2026-04-29 15:19 | 42.00845 | 119.45258 | 36202 ft | 453 kts | 236° |
| 2026-04-29 15:19 | 41.97118 | 119.38432 | 36207 ft | 454 kts | 233° |
| 2026-04-29 15:20 | 41.93304 | 119.31760 | 36221 ft | 454 kts | 231° |
| 2026-04-29 15:20 | 41.89288 | 119.25214 | 36215 ft | 453 kts | 228° |
| 2026-04-29 15:21 | 41.85055 | 119.18963 | 36200 ft | 453 kts | 225° |
| 2026-04-29 15:21 | 41.80580 | 119.13057 | 36231 ft | 452 kts | 222° |
| 2026-04-29 15:22 | 41.75919 | 119.07369 | 36196 ft | 452 kts | 220° |
| 2026-04-29 15:22 | 41.71079 | 119.01990 | 36215 ft | 452 kts | 217° |
| 2026-04-29 15:22 | 41.68703 | 118.99270 | 36214 ft | 453 kts | 228° |
| 2026-04-29 15:23 | 41.66914 | 118.95818 | 36307 ft | 455 kts | 243° |
| 2026-04-29 15:23 | 41.65851 | 118.91820 | 36484 ft | 454 kts | 258° |
| 2026-04-29 15:23 | 41.65468 | 118.87704 | 36777 ft | 452 kts | 265° |
| 2026-04-29 15:24 | 41.64602 | 118.79363 | 36570 ft | 460 kts | 256° |
| 2026-04-29 15:24 | 41.63475 | 118.75411 | 36519 ft | 451 kts | 240° |
| 2026-04-29 15:24 | 41.61908 | 118.71756 | 36437 ft | 453 kts | 238° |
| 2026-04-29 15:24 | 41.60238 | 118.68187 | 36289 ft | 454 kts | 236° |
| 2026-04-29 15:25 | 41.58447 | 118.64735 | 36107 ft | 453 kts | 233° |
| 2026-04-29 15:25 | 41.56515 | 118.61417 | 35920 ft | 453 kts | 229° |
| 2026-04-29 15:25 | 41.54443 | 118.58281 | 35725 ft | 453 kts | 225° |
| 2026-04-29 15:25 | 41.52198 | 118.55324 | 35492 ft | 452 kts | 221° |
| 2026-04-29 15:26 | 41.49836 | 118.52592 | 35258 ft | 451 kts | 219° |
| 2026-04-29 15:26 | 41.47459 | 118.49848 | 35011 ft | 451 kts | 219° |
| 2026-04-29 15:26 | 41.45112 | 118.47127 | 34772 ft | 451 kts | 219° |
| 2026-04-29 15:26 | 41.42733 | 118.44392 | 34498 ft | 451 kts | 219° |
| 2026-04-29 15:27 | 41.40333 | 118.41695 | 34291 ft | 449 kts | 218° |
| 2026-04-29 15:27 | 41.37919 | 118.39078 | 34113 ft | 446 kts | 216° |
| 2026-04-29 15:27 | 41.35463 | 118.36543 | 33937 ft | 444 kts | 215° |
| 2026-04-29 15:27 | 41.32985 | 118.34150 | 33722 ft | 442 kts | 212° |
| 2026-04-29 15:28 | 41.30466 | 118.31807 | 33471 ft | 441 kts | 215° |
| 2026-04-29 15:28 | 41.28919 | 118.30052 | 33319 ft | 443 kts | 222° |
| 2026-04-29 15:28 | 41.26041 | 118.26186 | 32986 ft | 443 kts | 223° |
| 2026-04-29 15:28 | 41.23833 | 118.23295 | 32747 ft | 442 kts | 222° |
| 2026-04-29 15:29 | 41.21620 | 118.20511 | 32518 ft | 440 kts | 220° |
| 2026-04-29 15:29 | 41.17133 | 118.15056 | 32051 ft | 440 kts | 224° |
| 2026-04-29 15:30 | 41.13004 | 118.09100 | 31599 ft | 438 kts | 227° |
| 2026-04-29 15:30 | 41.11013 | 118.06074 | 31366 ft | 436 kts | 228° |
| 2026-04-29 15:30 | 41.09039 | 118.03025 | 31135 ft | 435 kts | 228° |
| 2026-04-29 15:30 | 41.07066 | 117.99970 | 30770 ft | 431 kts | 228° |
| 2026-04-29 15:31 | 41.05127 | 117.97002 | 30296 ft | 428 kts | 227° |
| 2026-04-29 15:31 | 41.03143 | 117.94040 | 29820 ft | 425 kts | 226° |
| 2026-04-29 15:31 | 41.01158 | 117.91193 | 29328 ft | 422 kts | 225° |
| 2026-04-29 15:31 | 40.99112 | 117.88414 | 28825 ft | 420 kts | 223° |
| 2026-04-29 15:32 | 40.97022 | 117.85763 | 28336 ft | 417 kts | 220° |
| 2026-04-29 15:32 | 40.94825 | 117.83203 | 27841 ft | 414 kts | 218° |
| 2026-04-29 15:32 | 40.92585 | 117.80843 | 27360 ft | 411 kts | 214° |
| 2026-04-29 15:32 | 40.90258 | 117.78665 | 26887 ft | 410 kts | 211° |
| 2026-04-29 15:33 | 40.87910 | 117.76552 | 26372 ft | 411 kts | 219° |
| 2026-04-29 15:33 | 40.85961 | 117.73798 | 26099 ft | 409 kts | 232° |
| 2026-04-29 15:33 | 40.84515 | 117.70649 | 25657 ft | 406 kts | 243° |
| 2026-04-29 15:33 | 40.83247 | 117.67328 | 25190 ft | 404 kts | 243° |
| 2026-04-29 15:34 | 40.82012 | 117.63997 | 24712 ft | 401 kts | 244° |
| 2026-04-29 15:34 | 40.80811 | 117.60713 | 24243 ft | 398 kts | 244° |
| 2026-04-29 15:34 | 40.79595 | 117.57404 | 23775 ft | 395 kts | 244° |
| 2026-04-29 15:34 | 40.78384 | 117.54189 | 23310 ft | 393 kts | 243° |
| 2026-04-29 15:35 | 40.77148 | 117.51041 | 22855 ft | 390 kts | 242° |
| 2026-04-29 15:35 | 40.75843 | 117.47912 | 22392 ft | 387 kts | 240° |
| 2026-04-29 15:35 | 40.74466 | 117.44852 | 21928 ft | 385 kts | 238° |
| 2026-04-29 15:35 | 40.73019 | 117.41921 | 21464 ft | 383 kts | 234° |
| 2026-04-29 15:36 | 40.71471 | 117.39098 | 21001 ft | 380 kts | 232° |
| 2026-04-29 15:36 | 40.69790 | 117.36372 | 20533 ft | 377 kts | 228° |
| 2026-04-29 15:36 | 40.68005 | 117.33839 | 20023 ft | 376 kts | 223° |
| 2026-04-29 15:36 | 40.66108 | 117.31517 | 19552 ft | 373 kts | 218° |
| 2026-04-29 15:37 | 40.64092 | 117.29431 | 19148 ft | 368 kts | 213° |
| 2026-04-29 15:37 | 40.61964 | 117.27615 | 18788 ft | 362 kts | 207° |
| 2026-04-29 15:37 | 40.59782 | 117.26014 | 18446 ft | 357 kts | 207° |
| 2026-04-29 15:37 | 40.57655 | 117.24352 | 18103 ft | 354 kts | 209° |
| 2026-04-29 15:38 | 40.55575 | 117.22635 | 17761 ft | 351 kts | 211° |
| 2026-04-29 15:38 | 40.53519 | 117.20877 | 17420 ft | 349 kts | 211° |
| 2026-04-29 15:38 | 40.51523 | 117.19144 | 17084 ft | 347 kts | 212° |
| 2026-04-29 15:38 | 40.50005 | 117.17830 | 16829 ft | 346 kts | 211° |
| 2026-04-29 15:39 | 40.48273 | 117.16352 | 16540 ft | 344 kts | 211° |
| 2026-04-29 15:39 | 40.46258 | 117.14688 | 16203 ft | 342 kts | 210° |
| 2026-04-29 15:39 | 40.44218 | 117.13094 | 15860 ft | 340 kts | 208° |
| 2026-04-29 15:40 | 40.42154 | 117.11602 | 15518 ft | 338 kts | 206° |
| 2026-04-29 15:40 | 40.40061 | 117.10236 | 15173 ft | 335 kts | 203° |
| 2026-04-29 15:40 | 40.37968 | 117.08875 | 14835 ft | 334 kts | 206° |
| 2026-04-29 15:40 | 40.35948 | 117.07368 | 14527 ft | 332 kts | 210° |
| 2026-04-29 15:41 | 40.34032 | 117.05711 | 14306 ft | 331 kts | 214° |
| 2026-04-29 15:41 | 40.32198 | 117.03852 | 14120 ft | 331 kts | 219° |
| 2026-04-29 15:41 | 40.30414 | 117.01949 | 13925 ft | 329 kts | 217° |
| 2026-04-29 15:41 | 40.28579 | 117.00126 | 13725 ft | 328 kts | 215° |
| 2026-04-29 15:42 | 40.26725 | 116.98441 | 13516 ft | 327 kts | 212° |
| 2026-04-29 15:42 | 40.24801 | 116.96852 | 13330 ft | 326 kts | 210° |
| 2026-04-29 15:42 | 40.22815 | 116.95349 | 13139 ft | 326 kts | 207° |
| 2026-04-29 15:42 | 40.20803 | 116.93977 | 12943 ft | 325 kts | 206° |
| 2026-04-29 15:43 | 40.18792 | 116.92628 | 12764 ft | 325 kts | 206° |
| 2026-04-29 15:43 | 40.16787 | 116.91290 | 12585 ft | 324 kts | 206° |
| 2026-04-29 15:43 | 40.14768 | 116.89983 | 12332 ft | 320 kts | 205° |
| 2026-04-29 15:43 | 40.12773 | 116.88759 | 11965 ft | 317 kts | 203° |
| 2026-04-29 15:44 | 40.10752 | 116.87619 | 11614 ft | 315 kts | 201° |
| 2026-04-29 15:44 | 40.08691 | 116.86585 | 11216 ft | 315 kts | 198° |
| 2026-04-29 15:44 | 40.06618 | 116.85702 | 10835 ft | 313 kts | 195° |
| 2026-04-29 15:44 | 40.04534 | 116.84994 | 10472 ft | 311 kts | 191° |
| 2026-04-29 15:45 | 40.02393 | 116.84452 | 10113 ft | 308 kts | 191° |
| 2026-04-29 15:45 | 40.00362 | 116.83667 | 9892 ft | 304 kts | 204° |
| 2026-04-29 15:45 | 39.98561 | 116.82224 | 9573 ft | 301 kts | 221° |
| 2026-04-29 15:45 | 39.97120 | 116.80321 | 9271 ft | 297 kts | 233° |
| 2026-04-29 15:46 | 39.95937 | 116.78123 | 8907 ft | 295 kts | 241° |
| 2026-04-29 15:46 | 39.94929 | 116.75796 | 8613 ft | 293 kts | 245° |
| 2026-04-29 15:46 | 39.94032 | 116.73418 | 8336 ft | 294 kts | 248° |
| 2026-04-29 15:46 | 39.93160 | 116.70996 | 8033 ft | 292 kts | 245° |
| 2026-04-29 15:47 | 39.92181 | 116.68684 | 7711 ft | 291 kts | 241° |
| 2026-04-29 15:47 | 39.91078 | 116.66497 | 7371 ft | 290 kts | 236° |
| 2026-04-29 15:47 | 39.89829 | 116.64442 | 7033 ft | 289 kts | 230° |
| 2026-04-29 15:47 | 39.88463 | 116.62572 | 6710 ft | 287 kts | 228° |
| 2026-04-29 15:48 | 39.87081 | 116.60708 | 6385 ft | 286 kts | 228° |
| 2026-04-29 15:48 | 39.85695 | 116.58852 | 6056 ft | 284 kts | 227° |
| 2026-04-29 15:48 | 39.84311 | 116.57053 | 5748 ft | 276 kts | 226° |
| 2026-04-29 15:48 | 39.82984 | 116.55349 | 5579 ft | 263 kts | 230° |
| 2026-04-29 15:49 | 39.81940 | 116.53471 | 5452 ft | 248 kts | 243° |
| 2026-04-29 15:49 | 39.81141 | 116.51581 | 5364 ft | 235 kts | 245° |
| 2026-04-29 15:49 | 39.80463 | 116.49686 | 5250 ft | 224 kts | 251° |
| 2026-04-29 15:49 | 39.79958 | 116.47804 | 5068 ft | 221 kts | 256° |
| 2026-04-29 15:50 | 39.79581 | 116.45860 | 4855 ft | 220 kts | 261° |
| 2026-04-29 15:50 | 39.79332 | 116.43916 | 4636 ft | 218 kts | 264° |
| 2026-04-29 15:50 | 39.79151 | 116.41922 | 4035 ft | 233 kts | 264° |
| 2026-04-29 15:50 | 39.78933 | 116.39816 | 3563 ft | 235 kts | 257° |
| 2026-04-29 15:51 | 39.78253 | 116.37976 | 3338 ft | 219 kts | 234° |
| 2026-04-29 15:51 | 39.77532 | 116.36311 | 3190 ft | 206 kts | 252° |
| 2026-04-29 15:51 | 39.77300 | 116.34564 | 3184 ft | 183 kts | 267° |
| 2026-04-29 15:51 | 39.77549 | 116.33148 | 3307 ft | 151 kts | 311° |
| 2026-04-29 15:52 | 39.78527 | 116.32777 | 3528 ft | 160 kts | 18° |
| 2026-04-29 15:52 | 39.79254 | 116.33770 | 3189 ft | 156 kts | 85° |
| 2026-04-29 15:52 | 39.78790 | 116.34899 | 2779 ft | 151 kts | 158° |
| 2026-04-29 15:52 | 39.77795 | 116.35086 | 2419 ft | 141 kts | 169° |
| 2026-04-29 15:53 | 39.76845 | 116.35445 | 2322 ft | 144 kts | 165° |
| 2026-04-29 15:53 | 39.75867 | 116.35671 | 2253 ft | 142 kts | 180° |
| 2026-04-29 15:53 | 39.74872 | 116.35812 | 2213 ft | 143 kts | 172° |
| 2026-04-29 15:53 | 39.73893 | 116.36028 | 2206 ft | 143 kts | 172° |
| 2026-04-29 15:54 | 39.72900 | 116.36252 | 2206 ft | 143 kts | 173° |
| 2026-04-29 15:54 | 39.71907 | 116.36447 | 2264 ft | 143 kts | 175° |
| 2026-04-29 15:54 | 39.70918 | 116.36612 | 2478 ft | 144 kts | 171° |
| 2026-04-29 15:54 | 39.69920 | 116.36852 | 2735 ft | 147 kts | 173° |
| 2026-04-29 15:55 | 39.68894 | 116.37000 | 2974 ft | 148 kts | 177° |
| 2026-04-29 15:55 | 39.67874 | 116.37095 | 3108 ft | 148 kts | 177° |
| 2026-04-29 15:55 | 39.66838 | 116.37218 | 3148 ft | 150 kts | 176° |
| 2026-04-29 15:55 | 39.65805 | 116.37375 | 3018 ft | 149 kts | 174° |
| 2026-04-29 15:56 | 39.64771 | 116.37580 | 2730 ft | 148 kts | 173° |
| 2026-04-29 15:56 | 39.63783 | 116.37764 | 2473 ft | 143 kts | 176° |
| 2026-04-29 15:56 | 39.62783 | 116.37863 | 2298 ft | 144 kts | 179° |
| 2026-04-29 15:56 | 39.61783 | 116.37973 | 2139 ft | 143 kts | 175° |
| 2026-04-29 15:57 | 39.60790 | 116.38165 | 1939 ft | 144 kts | 173° |
| 2026-04-29 15:57 | 39.59808 | 116.38372 | 1688 ft | 141 kts | 174° |
| 2026-04-29 15:57 | 39.58847 | 116.38512 | 1536 ft | 139 kts | 179° |
| 2026-04-29 15:57 | 39.57868 | 116.38597 | 1437 ft | 143 kts | 173° |
| 2026-04-29 15:58 | 39.56893 | 116.38797 | 1159 ft | 140 kts | 173° |
| 2026-04-29 15:58 | 39.55940 | 116.38970 | 940 ft | 138 kts | 176° |
| 2026-04-29 15:58 | 39.54981 | 116.39121 | 763 ft | 140 kts | 173° |
| 2026-04-29 15:58 | 39.54030 | 116.39265 | 566 ft | 137 kts | 175° |
| 2026-04-29 15:59 | 39.53070 | 116.39409 | 410 ft | 138 kts | 175° |
| 2026-04-29 15:59 | 39.52113 | 116.39564 | 201 ft | 138 kts | 174° |
| 2026-04-29 15:59 | 39.51193 | 116.39712 | 93 ft | 124 kts | 174° |
| 2026-04-29 15:59 | 39.50499 | 116.39816 | 91 ft | 70 kts | 171° |
| 2026-04-29 16:00 | 39.50101 | 116.39879 | 91 ft | 56 kts | 173° |
| 2026-04-29 16:00 | 39.49721 | 116.39938 | 91 ft | 53 kts | 173° |
| 2026-04-29 16:00 | 39.49356 | 116.39995 | 91 ft | 46 kts | 173° |
| 2026-04-29 16:00 | 39.49090 | 116.40046 | 91 ft | 24 kts | 154° |
| 2026-04-29 16:01 | 39.49069 | 116.40134 | 91 ft | 8 kts | 84° |
| 2026-04-29 16:01 | 39.49075 | 116.40218 | 91 ft | 9 kts | 84° |
| 2026-04-29 16:01 | 39.49081 | 116.40294 | 91 ft | 6 kts | 82° |
| 2026-04-29 16:01 | 39.49088 | 116.40354 | 91 ft | 6 kts | 82° |
| 2026-04-29 16:02 | 39.49108 | 116.40371 | 91 ft | 6 kts | 341° |
| 2026-04-29 16:02 | 39.49142 | 116.40359 | 91 ft | 11 kts | 355° |
| 2026-04-29 16:02 | 39.49240 | 116.40349 | 91 ft | 17 kts | 355° |
| 2026-04-29 16:02 | 39.49369 | 116.40332 | 91 ft | 17 kts | 353° |
| 2026-04-29 16:03 | 39.49498 | 116.40312 | 91 ft | 19 kts | 352° |
| 2026-04-29 16:03 | 39.49635 | 116.40287 | 91 ft | 20 kts | 352° |
| 2026-04-29 16:03 | 39.49800 | 116.40264 | 91 ft | 25 kts | 352° |
| 2026-04-29 16:03 | 39.49946 | 116.40241 | 91 ft | 18 kts | 352° |
| 2026-04-29 16:04 | 39.50027 | 116.40279 | 91 ft | 13 kts | 76° |
| 2026-04-29 16:04 | 39.50039 | 116.40430 | 91 ft | 17 kts | 85° |
| 2026-04-29 16:04 | 39.50051 | 116.40596 | 91 ft | 18 kts | 77° |
| 2026-04-29 16:04 | 39.50072 | 116.40762 | 91 ft | 18 kts | 83° |
| 2026-04-29 16:05 | 39.50086 | 116.40921 | 91 ft | 18 kts | 84° |
| 2026-04-29 16:05 | 39.50103 | 116.41090 | 91 ft | 19 kts | 78° |
| 2026-04-29 16:05 | 39.50122 | 116.41282 | 91 ft | 22 kts | 84° |
| 2026-04-29 16:05 | 39.50138 | 116.41473 | 91 ft | 21 kts | 83° |
| 2026-04-29 16:06 | 39.50154 | 116.41671 | 91 ft | 22 kts | 82° |
| 2026-04-29 16:06 | 39.50178 | 116.41899 | 91 ft | 28 kts | 82° |
| 2026-04-29 16:06 | 39.50200 | 116.42127 | 91 ft | 21 kts | 83° |
| 2026-04-29 16:06 | 39.50233 | 116.42292 | 91 ft | 16 kts | 30° |
| 2026-04-29 16:07 | 39.50353 | 116.42287 | 91 ft | 18 kts | 352° |
| 2026-04-29 16:07 | 39.50472 | 116.42267 | 91 ft | 16 kts | 352° |
| 2026-04-29 16:07 | 39.50592 | 116.42245 | 91 ft | 18 kts | 354° |
| 2026-04-29 16:07 | 39.50748 | 116.42225 | 91 ft | 25 kts | 354° |
| 2026-04-29 16:08 | 39.50929 | 116.42198 | 91 ft | 27 kts | 353° |
| 2026-04-29 16:08 | 39.51103 | 116.42168 | 91 ft | 25 kts | 353° |
| 2026-04-29 16:08 | 39.51289 | 116.42140 | 91 ft | 27 kts | 354° |
| 2026-04-29 16:08 | 39.51482 | 116.42110 | 91 ft | 28 kts | 352° |
| 2026-04-29 16:09 | 39.51589 | 116.42074 | 91 ft | 8 kts | 304° |
| 2026-04-29 16:09 | 39.51588 | 116.42014 | 91 ft | 6 kts | 260° |
| 2026-04-29 16:09 | 39.51584 | 116.41954 | 91 ft | 7 kts | 264° |
| 2026-04-29 16:09 | 39.51579 | 116.41897 | 91 ft | 3 kts | 262° |
| 2026-04-29 16:10 | 39.51577 | 116.41882 | 91 ft | 0 kts | 262° |
| 2026-04-29 16:22 | 39.51578 | 116.41882 | 91 ft | 0 kts | 243° |
| 2026-04-29 16:25 | 39.51579 | 116.41882 | 91 ft | 0 kts | 262° |
| 2026-04-29 16:28 | 39.51661 | 116.41929 | 91 ft | 0 kts | 82° |
| 2026-04-29 16:28 | 39.51638 | 116.41898 | 91 ft | 0 kts | 82° |
| 2026-04-29 16:29 | 39.51597 | 116.41887 | 91 ft | 0 kts | 82° |
| 2026-04-29 16:29 | 39.51727 | 116.41832 | 91 ft | 0 kts | 82° |
| 2026-04-29 16:29 | 39.51614 | 116.41893 | 91 ft | 0 kts | 82° |
| 2026-04-29 16:29 | 39.51615 | 116.41893 | 91 ft | 0 kts | 184° |
| 2026-04-29 16:30 | 39.51616 | 116.41893 | 91 ft | 0 kts | 316° |
| 2026-04-29 16:30 | 39.51717 | 116.41874 | 91 ft | 0 kts | 316° |
| 2026-04-29 16:30 | 39.51744 | 116.41843 | 91 ft | 0 kts | 332° |
| 2026-04-29 16:31 | 39.51738 | 116.41828 | 91 ft | 0 kts | 97° |
| 2026-04-29 16:31 | 39.51726 | 116.41823 | 91 ft | 0 kts | 88° |